Aérodrome :







RETROUVEZ-NOUS SUR...

 
LOGIN :

S'inscrire | Disclaimer

   EN    FR    IT 

 









Légende :    VFR   VFR Marginal   IFR   IFR Intensif   IFR Très Intensif
Visi : 
Plafond : 
>= 8 km
>= 3000ft
5 à 8 km
1000 à 3000 ft
1500m à 5 km
500 à 1000 ft
800 à 1500m
200 à 500 ft
< 800m
< 200 ft
Symboles :   Orages  Brouillard  Fortes neiges  Fortes précipitations  Vent > 20 kt






- Altitude de l'aérodrome : 357 ft
- Code IATA : YSJ


CYSJ - Saint John

DERNIER METAR :
  • 171700Z 35005KT 320V030 15SM FEW020 FEW250 00/M11 A3044 RMK SC1CI1 SLP315

METARs EXPIRÉS :
  • 171600Z 03004KT 280V040 15SM FEW020 FEW250 M01/M11 A3046 RMK SC1CI1 SLP324
  • 171500Z 01006KT 15SM FEW250 M03/M10 A3049 RMK CI1 SLP332

TAF TAF CYSJ
Valide du 17 à 12h jusqu'au 18 à 00h UTC


171138Z 1712/1724 36005KT P6SM SKC
BECMG 1716/1718 VRB03KT RMK NXT FCST BY 171800Z



MET'MAP, la Météo Aéronautique d'un coup d'oeil ! - Copyright ORBIFLY Décembre 2007 - Disclaimer

ORBIFLY MET'MAP TEAM :

Programmation & Développement : Alexandra Zaïnal
Conception & Développement : Baudouin d'Aumeries
Co-Programmation & Développement : Marc-Olivier Méhu
Soutien technique & logistique : Manuel Goepfert

Contact : metmap@orbifly.com




SOURCES & CREDITS :

   NOAA